Time;durP1;ratioP1;P1;durP2;ratioP2;P2;SDS_P1;SDS_P2;PMS_P1;PMS_P2;Temp;Humidity;BMP_temperature;BMP_pressure;BME280_temperature;BME280_humidity;BME280_pressure;Samples;Min_cycle;Max_cycle;Signal;HPM_P1;HPM_P2
2023/08/13 00:01:30;;;;;;;;;;;16.70;99.90;;;;;;5046342;28;19986;-68
2023/08/13 00:03:56;;;;;;;;;;;16.70;99.90;;;;;;5042526;28;19921;-69
2023/08/13 00:06:22;;;;;;;;;;;16.70;99.90;;;;;;5045352;28;19925;-69
2023/08/13 00:08:47;;;;;;;;;;;16.70;99.90;;;;;;5045277;28;19916;-69
2023/08/13 00:11:13;;;;;;;;;;;16.70;99.90;;;;;;5039520;28;20019;-69
2023/08/13 00:13:39;;;;;;;;;;;16.60;99.90;;;;;;5038446;28;19917;-69
2023/08/13 00:16:04;;;;;;;;;;;16.60;99.90;;;;;;5040439;28;19935;-69
2023/08/13 00:18:31;;;;;;;;;;;16.60;99.90;;;;;;5040167;28;19921;-69
2023/08/13 00:20:57;;;;;;;;;;;16.60;99.90;;;;;;5046264;28;19972;-69
2023/08/13 00:23:23;;;;;;;;;;;16.60;99.90;;;;;;5047151;28;20452;-69
2023/08/13 00:25:48;;;;;;;;;;;16.60;99.90;;;;;;5045953;28;20433;-68
2023/08/13 00:28:14;;;;;;;;;;;16.50;99.90;;;;;;5044330;28;20428;-69
2023/08/13 00:30:39;;;;;;;;;;;16.50;99.90;;;;;;5045933;28;19917;-69
2023/08/13 00:33:05;;;;;;;;;;;16.60;99.90;;;;;;5040434;28;20382;-69
2023/08/13 00:35:31;;;;;;;;;;;16.50;99.90;;;;;;5041879;28;20003;-69
2023/08/13 00:37:57;;;;;;;;;;;16.60;99.90;;;;;;5047104;28;19920;-68
2023/08/13 00:40:22;;;;;;;;;;;16.60;99.90;;;;;;5038228;28;19966;-69
2023/08/13 00:42:48;;;;;;;;;;;16.50;99.90;;;;;;5039106;28;19916;-68
2023/08/13 00:45:14;;;;;;;;;;;16.50;99.90;;;;;;5041212;28;20019;-69
2023/08/13 00:47:39;;;;;;;;;;;16.50;99.90;;;;;;5042387;28;19931;-68
2023/08/13 00:50:05;;;;;;;;;;;16.60;99.90;;;;;;5044007;28;19956;-69
2023/08/13 00:52:31;;;;;;;;;;;16.60;99.90;;;;;;5037713;28;19920;-69
2023/08/13 00:54:57;;;;;;;;;;;16.60;99.90;;;;;;5036796;28;19978;-69
2023/08/13 00:57:23;;;;;;;;;;;16.60;99.90;;;;;;5043825;28;19975;-69
2023/08/13 00:59:50;;;;;;;;;;;16.60;99.90;;;;;;5041731;28;20412;-68
2023/08/13 01:02:16;;;;;;;;;;;16.60;99.90;;;;;;5043812;28;19920;-69
2023/08/13 01:04:41;;;;;;;;;;;16.60;99.90;;;;;;5038772;28;19967;-69
2023/08/13 01:07:25;;;;;;;;;;;16.60;99.90;;;;;;5046750;28;19921;-70
2023/08/13 01:10:11;;;;;;;;;;;16.60;99.90;;;;;;5077226;22;19920;-71
2023/08/13 01:12:54;;;;;;;;;;;16.60;99.90;;;;;;5052264;28;19916;-70
2023/08/13 01:15:22;;;;;;;;;;;16.60;99.90;;;;;;5056502;28;19924;-71
2023/08/13 01:17:48;;;;;;;;;;;16.60;99.90;;;;;;5051369;28;20348;-71
2023/08/13 01:20:15;;;;;;;;;;;16.60;99.90;;;;;;5049340;28;19917;-70
2023/08/13 01:22:47;;;;;;;;;;;16.60;99.90;;;;;;5037458;28;20008;-70
2023/08/13 01:25:14;;;;;;;;;;;16.60;99.90;;;;;;5049336;28;19916;-71
2023/08/13 01:27:51;;;;;;;;;;;16.60;99.90;;;;;;5042087;28;19920;-70
2023/08/13 01:30:24;;;;;;;;;;;16.60;99.90;;;;;;5050484;28;20417;-70
2023/08/13 01:32:53;;;;;;;;;;;16.60;99.90;;;;;;5049742;28;19916;-71
2023/08/13 01:35:20;;;;;;;;;;;16.60;99.90;;;;;;5049616;28;19970;-71
2023/08/13 01:37:46;;;;;;;;;;;16.60;99.90;;;;;;5033074;28;19956;-71
2023/08/13 01:40:12;;;;;;;;;;;16.60;99.90;;;;;;5051522;28;19927;-71
2023/08/13 01:42:37;;;;;;;;;;;16.70;99.90;;;;;;5042080;28;19928;-71
2023/08/13 01:45:03;;;;;;;;;;;16.70;99.90;;;;;;5049939;28;20018;-70
2023/08/13 01:47:29;;;;;;;;;;;16.60;99.90;;;;;;5049902;28;20007;-70
2023/08/13 01:49:55;;;;;;;;;;;16.70;99.90;;;;;;5048622;28;19916;-70
2023/08/13 01:52:20;;;;;;;;;;;16.70;99.90;;;;;;5040729;28;19970;-72
2023/08/13 01:54:46;;;;;;;;;;;16.70;99.90;;;;;;5059439;28;20257;-70
2023/08/13 01:57:11;;;;;;;;;;;16.70;99.90;;;;;;5054014;28;19967;-72
2023/08/13 01:59:37;;;;;;;;;;;16.70;99.90;;;;;;5049247;28;19925;-72
2023/08/13 02:02:03;;;;;;;;;;;16.70;99.90;;;;;;5039785;28;20390;-71
2023/08/13 02:04:28;;;;;;;;;;;16.70;99.90;;;;;;5031323;28;19920;-71
2023/08/13 02:06:54;;;;;;;;;;;16.70;99.90;;;;;;5048778;28;20317;-71
2023/08/13 02:09:19;;;;;;;;;;;16.70;99.90;;;;;;5060437;28;20293;-71
2023/08/13 02:11:45;;;;;;;;;;;16.70;99.90;;;;;;5036548;28;19917;-71
2023/08/13 02:14:11;;;;;;;;;;;16.70;99.90;;;;;;5048805;28;19920;-71
2023/08/13 02:16:36;;;;;;;;;;;16.60;99.90;;;;;;5049103;28;20267;-70
2023/08/13 02:19:02;;;;;;;;;;;16.60;99.90;;;;;;5050613;28;20320;-71
2023/08/13 02:21:27;;;;;;;;;;;16.70;99.90;;;;;;5047822;28;19956;-71
2023/08/13 02:23:53;;;;;;;;;;;16.60;99.90;;;;;;5048964;28;19939;-71
2023/08/13 02:26:19;;;;;;;;;;;16.60;99.90;;;;;;5037589;28;20027;-71
2023/08/13 02:28:45;;;;;;;;;;;16.60;99.90;;;;;;5042876;28;19973;-70
2023/08/13 02:31:11;;;;;;;;;;;16.60;99.90;;;;;;5043402;28;19924;-71
2023/08/13 02:33:37;;;;;;;;;;;16.70;99.90;;;;;;5048959;28;19917;-71
2023/08/13 02:36:02;;;;;;;;;;;16.60;99.90;;;;;;5064456;28;20344;-71
2023/08/13 02:38:28;;;;;;;;;;;16.60;99.90;;;;;;5044113;28;19939;-71
2023/08/13 02:40:54;;;;;;;;;;;16.60;99.90;;;;;;5048211;28;20363;-71
2023/08/13 02:43:19;;;;;;;;;;;16.60;99.90;;;;;;5045289;28;20016;-71
2023/08/13 02:45:45;;;;;;;;;;;16.60;99.90;;;;;;5037347;28;19940;-70
2023/08/13 02:48:11;;;;;;;;;;;16.60;99.90;;;;;;5055092;28;19921;-71
2023/08/13 02:50:36;;;;;;;;;;;16.60;99.90;;;;;;5048077;28;19917;-71
2023/08/13 02:53:02;;;;;;;;;;;16.50;99.90;;;;;;5048678;28;20309;-70
2023/08/13 02:55:28;;;;;;;;;;;16.60;99.90;;;;;;5037163;28;20593;-71
2023/08/13 02:57:54;;;;;;;;;;;16.60;99.90;;;;;;5046543;28;19917;-71
2023/08/13 03:00:20;;;;;;;;;;;16.60;99.90;;;;;;5045182;28;19943;-71
2023/08/13 03:02:46;;;;;;;;;;;16.50;99.90;;;;;;5035848;28;20451;-71
2023/08/13 03:05:11;;;;;;;;;;;16.50;99.90;;;;;;5039657;28;20078;-73
2023/08/13 03:07:37;;;;;;;;;;;16.50;99.90;;;;;;5036701;28;20405;-73
2023/08/13 03:10:03;;;;;;;;;;;16.50;99.90;;;;;;5042751;28;19940;-73
2023/08/13 03:12:29;;;;;;;;;;;16.60;99.90;;;;;;5036009;28;19925;-73
2023/08/13 03:14:54;;;;;;;;;;;16.50;99.90;;;;;;5034019;28;19916;-73
2023/08/13 03:17:20;;;;;;;;;;;16.50;99.90;;;;;;5039684;28;20108;-73
2023/08/13 03:19:46;;;;;;;;;;;16.50;99.90;;;;;;5031661;28;19979;-73
2023/08/13 03:22:12;;;;;;;;;;;16.50;99.90;;;;;;5035988;28;20015;-73
2023/08/13 03:24:37;;;;;;;;;;;16.50;99.90;;;;;;5042397;28;19947;-73
2023/08/13 03:27:03;;;;;;;;;;;16.60;99.90;;;;;;5042668;28;19995;-73
2023/08/13 03:29:29;;;;;;;;;;;16.60;99.90;;;;;;5041381;28;19921;-73
2023/08/13 03:31:54;;;;;;;;;;;16.60;99.90;;;;;;5023013;28;20382;-73
2023/08/13 03:34:20;;;;;;;;;;;16.60;99.90;;;;;;5045863;28;19991;-73
2023/08/13 03:36:45;;;;;;;;;;;16.60;99.90;;;;;;5038688;28;19963;-73
2023/08/13 03:39:11;;;;;;;;;;;16.60;99.90;;;;;;5043478;28;19924;-73
2023/08/13 03:41:37;;;;;;;;;;;16.60;99.90;;;;;;5019487;28;20027;-73
2023/08/13 03:44:02;;;;;;;;;;;16.60;99.90;;;;;;5042212;28;19921;-73
2023/08/13 03:46:28;;;;;;;;;;;16.60;99.90;;;;;;5044717;28;19928;-73
2023/08/13 03:48:53;;;;;;;;;;;16.60;99.90;;;;;;5042491;28;19921;-73
2023/08/13 03:51:19;;;;;;;;;;;16.70;99.90;;;;;;5034924;28;19921;-74
2023/08/13 03:53:45;;;;;;;;;;;16.70;99.90;;;;;;5037936;28;19995;-73
2023/08/13 03:56:10;;;;;;;;;;;16.70;99.90;;;;;;5044070;28;20313;-73
2023/08/13 03:58:37;;;;;;;;;;;16.70;99.90;;;;;;5042641;28;20451;-73
2023/08/13 04:01:07;;;;;;;;;;;16.80;99.90;;;;;;5045761;28;20015;-73
2023/08/13 04:03:32;;;;;;;;;;;16.80;99.90;;;;;;5044417;28;19968;-73
2023/08/13 04:05:58;;;;;;;;;;;16.80;99.90;;;;;;5044405;28;19959;-73
2023/08/13 04:08:24;;;;;;;;;;;16.80;99.90;;;;;;5043382;28;19921;-73
2023/08/13 04:10:50;;;;;;;;;;;16.90;99.90;;;;;;5035344;28;19917;-73
2023/08/13 04:13:15;;;;;;;;;;;16.80;99.90;;;;;;5039214;28;20239;-73
2023/08/13 04:15:41;;;;;;;;;;;16.90;99.90;;;;;;5043282;28;19916;-73
2023/08/13 04:18:07;;;;;;;;;;;16.90;99.90;;;;;;5043070;28;20797;-73
2023/08/13 04:20:32;;;;;;;;;;;16.90;99.90;;;;;;5043674;28;19926;-72
2023/08/13 04:22:58;;;;;;;;;;;16.90;99.90;;;;;;5044329;28;21431;-72
2023/08/13 04:25:25;;;;;;;;;;;16.90;99.90;;;;;;5036925;28;20151;-73
2023/08/13 04:27:51;;;;;;;;;;;16.90;99.90;;;;;;5026547;28;20011;-73
2023/08/13 04:30:17;;;;;;;;;;;16.90;99.90;;;;;;5044424;28;20043;-73
2023/08/13 04:32:51;;;;;;;;;;;16.90;99.90;;;;;;5063198;28;20306;-73
2023/08/13 04:35:16;;;;;;;;;;;17.00;99.90;;;;;;5044506;28;20309;-73
2023/08/13 04:37:42;;;;;;;;;;;17.00;99.90;;;;;;5043159;28;19920;-73
2023/08/13 04:40:08;;;;;;;;;;;17.00;99.90;;;;;;5033249;28;20318;-73
2023/08/13 04:42:34;;;;;;;;;;;17.00;99.90;;;;;;5030714;28;19917;-73
2023/08/13 04:44:59;;;;;;;;;;;17.00;99.90;;;;;;5048169;28;19916;-70
2023/08/13 04:47:25;;;;;;;;;;;17.00;99.90;;;;;;5036226;28;20275;-70
2023/08/13 04:49:50;;;;;;;;;;;17.00;99.90;;;;;;5027200;28;20251;-70
2023/08/13 04:52:16;;;;;;;;;;;17.00;99.90;;;;;;5040358;28;19952;-71
2023/08/13 04:54:44;;;;;;;;;;;17.00;99.90;;;;;;5043468;28;20016;-70
2023/08/13 04:57:10;;;;;;;;;;;17.10;99.90;;;;;;5044817;28;20282;-71
2023/08/13 04:59:35;;;;;;;;;;;17.10;99.90;;;;;;5037188;28;19925;-70
2023/08/13 05:02:01;;;;;;;;;;;17.10;99.90;;;;;;5040729;28;20441;-70
2023/08/13 05:04:26;;;;;;;;;;;17.10;99.90;;;;;;5026455;28;20163;-71
2023/08/13 05:06:52;;;;;;;;;;;17.10;99.90;;;;;;5044683;28;20428;-70
2023/08/13 05:09:18;;;;;;;;;;;17.20;99.90;;;;;;5045705;28;19931;-70
2023/08/13 05:11:43;;;;;;;;;;;17.20;99.90;;;;;;5058423;28;20015;-70
2023/08/13 05:14:09;;;;;;;;;;;17.20;99.90;;;;;;5038178;28;20294;-71
2023/08/13 05:16:34;;;;;;;;;;;17.20;99.90;;;;;;5040268;28;19932;-71
2023/08/13 05:19:00;;;;;;;;;;;17.20;99.90;;;;;;5043791;28;19917;-70
2023/08/13 05:21:25;;;;;;;;;;;17.20;99.90;;;;;;5043400;28;20489;-70
2023/08/13 05:23:51;;;;;;;;;;;17.20;99.90;;;;;;5038535;28;19916;-72
2023/08/13 05:26:17;;;;;;;;;;;17.20;99.90;;;;;;5036678;28;20424;-71
2023/08/13 05:28:42;;;;;;;;;;;17.30;99.90;;;;;;5040755;28;20058;-71
2023/08/13 05:31:08;;;;;;;;;;;17.30;99.90;;;;;;5039061;28;19928;-71
2023/08/13 05:33:34;;;;;;;;;;;17.30;99.90;;;;;;5037023;28;20366;-71
2023/08/13 05:35:59;;;;;;;;;;;17.30;99.90;;;;;;5044171;28;19917;-71
2023/08/13 05:38:25;;;;;;;;;;;17.30;99.90;;;;;;5043482;28;20286;-70
2023/08/13 05:40:51;;;;;;;;;;;17.30;99.90;;;;;;5037641;28;19965;-71
2023/08/13 05:43:16;;;;;;;;;;;17.30;99.90;;;;;;5035853;28;19917;-71
2023/08/13 05:45:42;;;;;;;;;;;17.30;99.90;;;;;;5036943;28;20313;-71
2023/08/13 05:48:07;;;;;;;;;;;17.30;99.90;;;;;;5041312;28;19932;-71
2023/08/13 05:50:33;;;;;;;;;;;17.30;99.90;;;;;;5042642;28;19972;-71
2023/08/13 05:52:59;;;;;;;;;;;17.30;99.90;;;;;;5032287;28;19947;-71
2023/08/13 05:55:25;;;;;;;;;;;17.30;99.90;;;;;;5036753;28;19924;-71
2023/08/13 05:57:50;;;;;;;;;;;17.30;99.90;;;;;;5040413;28;19948;-71
2023/08/13 06:00:16;;;;;;;;;;;17.30;99.90;;;;;;5021106;28;20036;-71
2023/08/13 06:02:42;;;;;;;;;;;17.30;99.90;;;;;;5021357;28;20194;-71
2023/08/13 06:05:08;;;;;;;;;;;17.30;99.90;;;;;;5040279;28;19917;-71
2023/08/13 06:07:34;;;;;;;;;;;17.40;99.90;;;;;;5041055;28;20019;-71
2023/08/13 06:10:00;;;;;;;;;;;17.40;99.90;;;;;;5024322;28;19917;-71
2023/08/13 06:12:26;;;;;;;;;;;17.40;99.90;;;;;;5036779;28;19943;-70
2023/08/13 06:14:51;;;;;;;;;;;17.40;99.90;;;;;;5043595;28;19920;-71
2023/08/13 06:17:17;;;;;;;;;;;17.40;99.90;;;;;;5026261;28;19927;-71
2023/08/13 06:19:42;;;;;;;;;;;17.50;99.90;;;;;;5023573;28;20374;-71
2023/08/13 06:22:08;;;;;;;;;;;17.50;99.90;;;;;;5043278;28;20410;-71
2023/08/13 06:24:34;;;;;;;;;;;17.50;99.90;;;;;;5038361;28;19966;-71
2023/08/13 06:26:59;;;;;;;;;;;17.50;99.90;;;;;;5041248;28;20015;-70
2023/08/13 06:29:25;;;;;;;;;;;17.60;99.90;;;;;;5042840;28;19943;-71
2023/08/13 06:31:51;;;;;;;;;;;17.60;99.90;;;;;;5043288;28;19916;-71
2023/08/13 06:34:16;;;;;;;;;;;17.60;99.90;;;;;;5035665;28;19917;-71
2023/08/13 06:36:42;;;;;;;;;;;17.60;99.90;;;;;;5042063;28;19920;-71
2023/08/13 06:39:08;;;;;;;;;;;17.60;99.90;;;;;;5040418;28;19917;-71
2023/08/13 06:41:33;;;;;;;;;;;17.60;99.90;;;;;;5045535;28;19939;-71
2023/08/13 06:43:59;;;;;;;;;;;17.70;99.90;;;;;;5044565;28;19921;-71
2023/08/13 06:46:25;;;;;;;;;;;17.70;99.90;;;;;;5036150;28;19927;-71
2023/08/13 06:48:50;;;;;;;;;;;17.80;99.90;;;;;;5041285;28;19931;-72
2023/08/13 06:51:16;;;;;;;;;;;17.90;99.90;;;;;;5037331;28;20405;-71
2023/08/13 06:53:41;;;;;;;;;;;17.90;99.90;;;;;;5041453;28;19917;-71
2023/08/13 06:56:07;;;;;;;;;;;17.90;99.90;;;;;;5040139;28;19968;-70
2023/08/13 06:58:33;;;;;;;;;;;18.00;99.90;;;;;;5023161;28;19928;-71
2023/08/13 07:00:59;;;;;;;;;;;18.00;99.90;;;;;;5031377;28;20014;-72
2023/08/13 07:03:25;;;;;;;;;;;18.10;99.90;;;;;;5042775;28;20445;-71
2023/08/13 07:05:51;;;;;;;;;;;18.10;99.90;;;;;;5043672;28;20007;-71
2023/08/13 07:08:16;;;;;;;;;;;18.10;99.90;;;;;;5041690;28;19967;-71
2023/08/13 07:10:42;;;;;;;;;;;18.20;99.90;;;;;;5043924;28;19960;-71
2023/08/13 07:13:08;;;;;;;;;;;18.20;99.90;;;;;;5044204;28;20341;-71
2023/08/13 07:15:33;;;;;;;;;;;18.20;99.90;;;;;;5059747;22;19920;-70
2023/08/13 07:17:59;;;;;;;;;;;18.20;99.90;;;;;;5025443;28;20047;-70
2023/08/13 07:20:24;;;;;;;;;;;18.30;99.90;;;;;;5051912;28;19916;-70
2023/08/13 07:22:50;;;;;;;;;;;18.30;99.90;;;;;;5045651;28;20397;-70
2023/08/13 07:25:16;;;;;;;;;;;18.30;99.90;;;;;;5042598;28;20318;-70
2023/08/13 07:27:42;;;;;;;;;;;18.30;99.90;;;;;;5046897;28;20297;-70
2023/08/13 07:30:08;;;;;;;;;;;18.30;99.90;;;;;;5045123;28;20365;-69
2023/08/13 07:32:35;;;;;;;;;;;18.40;99.90;;;;;;5044421;28;20282;-70
2023/08/13 07:35:01;;;;;;;;;;;18.40;99.90;;;;;;5048282;28;19935;-69
2023/08/13 07:37:26;;;;;;;;;;;18.50;99.90;;;;;;5031881;28;19924;-70
2023/08/13 07:39:52;;;;;;;;;;;18.60;99.90;;;;;;5050137;28;20415;-70
2023/08/13 07:42:18;;;;;;;;;;;18.60;99.90;;;;;;5031236;28;20055;-71
2023/08/13 07:44:43;;;;;;;;;;;18.70;99.90;;;;;;5049618;28;20352;-69
2023/08/13 07:47:09;;;;;;;;;;;18.70;99.90;;;;;;5044321;28;19920;-70
2023/08/13 07:49:34;;;;;;;;;;;18.70;99.90;;;;;;5048474;28;19958;-71
2023/08/13 07:52:00;;;;;;;;;;;18.70;99.90;;;;;;5039328;28;19917;-70
2023/08/13 07:54:26;;;;;;;;;;;18.70;99.90;;;;;;5035138;28;19928;-70
2023/08/13 07:56:52;;;;;;;;;;;18.80;99.90;;;;;;5054759;28;20290;-69
2023/08/13 07:59:19;;;;;;;;;;;18.70;99.90;;;;;;5047417;28;20333;-74
2023/08/13 08:01:45;;;;;;;;;;;18.80;99.90;;;;;;5045804;28;20386;-69
2023/08/13 08:04:10;;;;;;;;;;;18.80;99.90;;;;;;5051502;28;20053;-69
2023/08/13 08:06:36;;;;;;;;;;;18.90;99.90;;;;;;5046310;28;20291;-70
2023/08/13 08:09:02;;;;;;;;;;;18.90;99.90;;;;;;5046368;28;19916;-69
2023/08/13 08:11:27;;;;;;;;;;;18.90;99.90;;;;;;5047847;28;19923;-69
2023/08/13 08:13:53;;;;;;;;;;;19.00;99.90;;;;;;5045027;28;20328;-70
2023/08/13 08:16:18;;;;;;;;;;;19.00;99.90;;;;;;5048400;28;19920;-69
2023/08/13 08:18:44;;;;;;;;;;;19.00;99.90;;;;;;5042956;28;19922;-69
2023/08/13 08:21:09;;;;;;;;;;;19.00;99.90;;;;;;5052452;28;20309;-70
2023/08/13 08:23:35;;;;;;;;;;;19.10;99.90;;;;;;5048156;28;20341;-70
2023/08/13 08:26:00;;;;;;;;;;;19.10;99.90;;;;;;5046134;28;19960;-70
2023/08/13 08:28:26;;;;;;;;;;;19.20;99.90;;;;;;5055669;28;20398;-69
2023/08/13 08:30:52;;;;;;;;;;;19.20;99.90;;;;;;5049095;28;19924;-70
2023/08/13 08:33:17;;;;;;;;;;;19.30;99.90;;;;;;5052600;28;19927;-70
2023/08/13 08:35:46;;;;;;;;;;;19.40;99.90;;;;;;5053422;28;20336;-69
2023/08/13 08:38:12;;;;;;;;;;;19.30;99.90;;;;;;5042065;28;20027;-70
2023/08/13 08:40:37;;;;;;;;;;;19.40;99.90;;;;;;5045485;28;19992;-70
2023/08/13 08:43:03;;;;;;;;;;;19.40;99.90;;;;;;5048060;28;19924;-70
2023/08/13 08:45:28;;;;;;;;;;;19.40;99.90;;;;;;5034145;28;20345;-70
2023/08/13 08:47:54;;;;;;;;;;;19.50;99.90;;;;;;5049982;28;20329;-70
2023/08/13 08:50:19;;;;;;;;;;;19.50;99.90;;;;;;5047093;28;19917;-70
2023/08/13 08:52:47;;;;;;;;;;;19.50;99.90;;;;;;5044562;28;19950;-70
2023/08/13 08:55:12;;;;;;;;;;;19.50;99.90;;;;;;5046453;28;19982;-70
2023/08/13 08:57:38;;;;;;;;;;;19.50;99.90;;;;;;5045513;28;19925;-70
2023/08/13 09:00:05;;;;;;;;;;;19.60;99.90;;;;;;5037640;28;19971;-70
2023/08/13 09:02:30;;;;;;;;;;;19.60;99.90;;;;;;5043677;28;19923;-71
2023/08/13 09:04:56;;;;;;;;;;;19.60;99.90;;;;;;5047260;28;19920;-70
2023/08/13 09:07:30;;;;;;;;;;;19.70;99.90;;;;;;5041397;28;19928;-70
2023/08/13 09:09:55;;;;;;;;;;;19.80;99.90;;;;;;5027364;28;20037;-69
2023/08/13 09:12:21;;;;;;;;;;;20.00;99.90;;;;;;5044000;28;20015;-69
2023/08/13 09:14:46;;;;;;;;;;;20.10;99.90;;;;;;5050638;28;20106;-70
2023/08/13 09:17:15;;;;;;;;;;;20.20;99.90;;;;;;5041626;28;20386;-71
2023/08/13 09:19:41;;;;;;;;;;;20.20;99.90;;;;;;5048983;28;20018;-70
2023/08/13 09:22:07;;;;;;;;;;;20.20;99.90;;;;;;5052770;28;19917;-70
2023/08/13 09:24:41;;;;;;;;;;;20.30;99.90;;;;;;5043585;28;20397;-70
2023/08/13 09:27:07;;;;;;;;;;;20.50;99.90;;;;;;5043936;28;20164;-71
2023/08/13 09:29:36;;;;;;;;;;;20.60;99.90;;;;;;5028625;28;19956;-71
2023/08/13 09:32:02;;;;;;;;;;;20.70;99.90;;;;;;5045988;28;19920;-71
2023/08/13 09:34:28;;;;;;;;;;;20.80;99.90;;;;;;5049513;28;20130;-71
2023/08/13 09:36:55;;;;;;;;;;;20.80;99.90;;;;;;5042723;28;20350;-70
2023/08/13 09:39:24;;;;;;;;;;;20.80;99.90;;;;;;5045429;28;20344;-71
2023/08/13 09:41:53;;;;;;;;;;;20.80;99.90;;;;;;5028425;28;19923;-71
2023/08/13 09:44:25;;;;;;;;;;;20.70;99.90;;;;;;5045471;28;19924;-71
2023/08/13 09:46:52;;;;;;;;;;;20.70;99.90;;;;;;5050858;28;20073;-70
2023/08/13 09:49:17;;;;;;;;;;;20.70;99.90;;;;;;5045370;28;19932;-70
2023/08/13 09:51:44;;;;;;;;;;;20.70;99.90;;;;;;5048876;28;19922;-71
2023/08/13 09:54:36;;;;;;;;;;;20.60;99.90;;;;;;5028160;28;19978;-71
2023/08/13 09:57:03;;;;;;;;;;;20.70;99.90;;;;;;5016131;28;19924;-71
2023/08/13 09:59:31;;;;;;;;;;;20.70;99.90;;;;;;5026580;28;20035;-71
2023/08/13 10:01:57;;;;;;;;;;;20.70;99.90;;;;;;5044376;28;20000;-71
2023/08/13 10:04:23;;;;;;;;;;;20.70;99.90;;;;;;5047705;28;20378;-71
2023/08/13 10:06:50;;;;;;;;;;;20.70;99.90;;;;;;5045102;28;19921;-71
2023/08/13 10:09:20;;;;;;;;;;;20.80;99.90;;;;;;5043561;28;19924;-71
2023/08/13 10:11:45;;;;;;;;;;;20.90;99.90;;;;;;5046467;28;19920;-71
2023/08/13 10:14:11;;;;;;;;;;;20.90;99.90;;;;;;5049060;28;20427;-71
2023/08/13 10:16:38;;;;;;;;;;;20.90;99.90;;;;;;5024008;28;20095;-70
2023/08/13 10:19:06;;;;;;;;;;;20.90;99.90;;;;;;5048492;28;19973;-70
2023/08/13 10:21:35;;;;;;;;;;;20.90;99.90;;;;;;5041116;28;19943;-71
2023/08/13 10:24:02;;;;;;;;;;;21.00;99.90;;;;;;5028609;28;19928;-70
2023/08/13 10:26:27;;;;;;;;;;;21.20;99.90;;;;;;5043760;28;20004;-71
2023/08/13 10:28:53;;;;;;;;;;;21.30;99.90;;;;;;5042967;28;20007;-71
2023/08/13 10:31:19;;;;;;;;;;;21.40;99.90;;;;;;5045399;28;20314;-71
2023/08/13 10:33:44;;;;;;;;;;;21.50;99.90;;;;;;5048894;28;19917;-70
2023/08/13 10:36:10;;;;;;;;;;;21.60;99.90;;;;;;5035797;28;19917;-71
2023/08/13 10:38:38;;;;;;;;;;;21.70;99.90;;;;;;5051778;28;20220;-70
2023/08/13 10:41:08;;;;;;;;;;;21.70;99.90;;;;;;5038376;28;19925;-70
2023/08/13 10:43:34;;;;;;;;;;;21.80;99.90;;;;;;5044569;28;19916;-71
2023/08/13 10:46:03;;;;;;;;;;;21.90;99.90;;;;;;5038229;28;19917;-70
2023/08/13 10:48:29;;;;;;;;;;;22.00;99.90;;;;;;5053305;28;19927;-71
2023/08/13 10:50:56;;;;;;;;;;;22.00;99.90;;;;;;5047286;28;19928;-71
2023/08/13 10:53:22;;;;;;;;;;;22.10;99.90;;;;;;5039798;28;19917;-71
2023/08/13 10:55:49;;;;;;;;;;;22.20;99.90;;;;;;5037778;28;19921;-71
2023/08/13 10:58:21;;;;;;;;;;;22.20;99.90;;;;;;5032257;28;19935;-71
2023/08/13 11:00:47;;;;;;;;;;;22.20;99.90;;;;;;5039778;28;19971;-70
2023/08/13 11:03:23;;;;;;;;;;;22.30;99.90;;;;;;5035622;28;20350;-70
2023/08/13 11:05:50;;;;;;;;;;;22.20;99.90;;;;;;5040483;28;20002;-70
2023/08/13 11:08:16;;;;;;;;;;;22.20;99.90;;;;;;5039542;28;19928;-70
2023/08/13 11:10:42;;;;;;;;;;;22.20;99.90;;;;;;5043243;28;19916;-70
2023/08/13 11:13:08;;;;;;;;;;;22.20;99.90;;;;;;5041881;28;20003;-72
2023/08/13 11:15:33;;;;;;;;;;;22.20;99.90;;;;;;5046897;28;20277;-73
2023/08/13 11:17:59;;;;;;;;;;;22.20;99.90;;;;;;5038881;28;19917;-71
2023/08/13 11:20:25;;;;;;;;;;;22.10;99.90;;;;;;5039445;28;20370;-75
2023/08/13 11:22:50;;;;;;;;;;;22.10;99.90;;;;;;5042639;28;20269;-73
2023/08/13 11:25:19;;;;;;;;;;;22.00;99.90;;;;;;5043123;28;20279;-72
2023/08/13 11:27:45;;;;;;;;;;;22.00;99.90;;;;;;5046459;28;19966;-73
2023/08/13 11:30:11;;;;;;;;;;;22.00;99.90;;;;;;5046273;28;20381;-74
2023/08/13 11:32:37;;;;;;;;;;;21.90;99.90;;;;;;5026075;28;20477;-73
2023/08/13 11:35:09;;;;;;;;;;;21.80;99.90;;;;;;5032532;28;20373;-71
2023/08/13 11:37:38;;;;;;;;;;;21.80;99.90;;;;;;5038208;28;19920;-72
2023/08/13 11:40:10;;;;;;;;;;;21.70;99.90;;;;;;5032639;28;20324;-72
2023/08/13 11:42:53;;;;;;;;;;;21.60;99.90;;;;;;5043875;28;20357;-75
2023/08/13 11:45:21;;;;;;;;;;;21.60;99.90;;;;;;5037555;28;20337;-70
2023/08/13 11:47:46;;;;;;;;;;;21.60;99.90;;;;;;5040914;28;19925;-77
2023/08/13 11:50:19;;;;;;;;;;;21.50;99.90;;;;;;5026000;28;20014;-72
2023/08/13 11:53:00;;;;;;;;;;;21.50;99.90;;;;;;5048590;28;19974;-69
2023/08/13 11:55:26;;;;;;;;;;;21.50;99.90;;;;;;5045450;28;20342;-72
2023/08/13 11:57:51;;;;;;;;;;;21.50;99.90;;;;;;5047941;28;20030;-68
2023/08/13 12:00:17;;;;;;;;;;;21.50;99.90;;;;;;5049874;28;19988;-69
2023/08/13 12:02:43;;;;;;;;;;;21.50;99.90;;;;;;5040430;28;19917;-73
2023/08/13 12:05:11;;;;;;;;;;;21.50;99.90;;;;;;5045343;28;19923;-71
2023/08/13 12:07:40;;;;;;;;;;;21.60;99.90;;;;;;5052437;28;19920;-71
2023/08/13 12:10:06;;;;;;;;;;;21.70;99.90;;;;;;5051751;28;19970;-70
2023/08/13 12:12:31;;;;;;;;;;;21.80;99.90;;;;;;5045211;28;19920;-69
2023/08/13 12:14:58;;;;;;;;;;;21.90;99.90;;;;;;5044653;28;19928;-68
2023/08/13 12:17:23;;;;;;;;;;;21.90;99.90;;;;;;5045996;28;20326;-68
2023/08/13 12:19:49;;;;;;;;;;;22.00;99.90;;;;;;5049084;28;19917;-69
2023/08/13 12:22:14;;;;;;;;;;;21.90;99.90;;;;;;5046938;28;20382;-71
2023/08/13 12:24:40;;;;;;;;;;;22.00;99.90;;;;;;5051113;28;20153;-69
2023/08/13 12:27:06;;;;;;;;;;;22.00;99.90;;;;;;5049870;28;19972;-71
2023/08/13 12:29:31;;;;;;;;;;;22.10;99.90;;;;;;5054943;28;19917;-71
2023/08/13 12:31:57;;;;;;;;;;;22.10;99.90;;;;;;5027306;28;20010;-69
2023/08/13 12:34:22;;;;;;;;;;;22.10;99.90;;;;;;5043418;28;19921;-69
2023/08/13 12:36:48;;;;;;;;;;;22.10;99.90;;;;;;5051587;28;20002;-69
2023/08/13 12:39:13;;;;;;;;;;;22.20;99.90;;;;;;5050783;28;19932;-69
2023/08/13 12:41:39;;;;;;;;;;;22.20;99.90;;;;;;5043401;28;19924;-68
2023/08/13 12:44:05;;;;;;;;;;;22.20;99.90;;;;;;5048546;28;19917;-69
2023/08/13 12:46:30;;;;;;;;;;;22.30;99.90;;;;;;5042874;28;19917;-69
2023/08/13 12:48:58;;;;;;;;;;;22.20;99.90;;;;;;5044060;28;20015;-69
2023/08/13 12:51:24;;;;;;;;;;;22.30;99.90;;;;;;5047366;28;19916;-69
2023/08/13 12:53:50;;;;;;;;;;;22.30;99.90;;;;;;5047612;28;19916;-69
2023/08/13 12:56:15;;;;;;;;;;;22.40;99.90;;;;;;5048909;28;20368;-69
2023/08/13 12:58:41;;;;;;;;;;;22.40;99.90;;;;;;5041946;28;19917;-69
2023/08/13 13:01:06;;;;;;;;;;;22.40;99.90;;;;;;5047448;28;19943;-69
2023/08/13 13:03:32;;;;;;;;;;;22.40;99.90;;;;;;5044783;28;19999;-69
2023/08/13 13:05:57;;;;;;;;;;;22.40;99.90;;;;;;5045966;28;19967;-69
2023/08/13 13:08:23;;;;;;;;;;;22.40;99.90;;;;;;5046790;28;19924;-69
2023/08/13 13:10:49;;;;;;;;;;;22.30;99.90;;;;;;5046494;28;19917;-69
2023/08/13 13:13:14;;;;;;;;;;;22.30;99.90;;;;;;5050637;28;19920;-69
2023/08/13 13:15:43;;;;;;;;;;;22.30;99.90;;;;;;5044350;28;20111;-69
2023/08/13 13:18:08;;;;;;;;;;;22.20;99.90;;;;;;5041026;28;20039;-69
2023/08/13 13:20:37;;;;;;;;;;;22.20;99.90;;;;;;5074984;22;19974;-83
2023/08/13 13:23:19;;;;;;;;;;;22.30;99.90;;;;;;5070612;28;19942;-85
2023/08/13 13:25:48;;;;;;;;;;;22.50;99.90;;;;;;5084395;28;20396;-83
2023/08/13 13:28:37;;;;;;;;;;;22.60;99.90;;;;;;5090201;28;19984;-85
2023/08/13 13:31:24;;;;;;;;;;;22.60;99.90;;;;;;5078982;28;19927;-84
2023/08/13 13:33:49;;;;;;;;;;;22.60;99.90;;;;;;5090929;28;19975;-88
2023/08/13 13:36:26;;;;;;;;;;;22.50;99.90;;;;;;5073993;28;19916;-86
2023/08/13 13:38:57;;;;;;;;;;;22.40;99.90;;;;;;5073653;28;19916;-85
2023/08/13 13:41:23;;;;;;;;;;;22.30;99.90;;;;;;5095055;28;19938;-83
2023/08/13 13:43:54;;;;;;;;;;;22.30;99.90;;;;;;5081072;28;20333;-84
2023/08/13 13:46:27;;;;;;;;;;;22.20;99.90;;;;;;5091209;28;19916;-84
2023/08/13 13:49:16;;;;;;;;;;;22.10;99.90;;;;;;5054304;28;19987;-85
2023/08/13 13:54:47;;;;;;;;;;;22.00;99.90;;;;;;5096398;28;19955;-85
2023/08/13 13:57:23;;;;;;;;;;;22.00;99.90;;;;;;5091916;28;19920;-84
2023/08/13 14:00:08;;;;;;;;;;;22.00;99.90;;;;;;5074776;28;19916;-84
2023/08/13 14:02:39;;;;;;;;;;;21.90;99.90;;;;;;5076362;28;19915;-84
2023/08/13 14:05:05;;;;;;;;;;;22.00;99.90;;;;;;5070112;28;19938;-84
2023/08/13 14:07:34;;;;;;;;;;;22.00;99.90;;;;;;5070306;28;19924;-85
2023/08/13 14:10:02;;;;;;;;;;;22.10;99.90;;;;;;5085435;28;20406;-85
2023/08/13 14:12:39;;;;;;;;;;;22.20;99.90;;;;;;5074334;28;20263;-84
2023/08/13 14:15:22;;;;;;;;;;;22.20;99.90;;;;;;5076042;28;19923;-83
2023/08/13 14:17:48;;;;;;;;;;;22.30;99.90;;;;;;5074636;28;20388;-82